createdAt,value
2023-03-31T00:00:24.059Z,10.83
2023-03-31T00:03:46.659Z,10.83
2023-03-31T00:06:50.938Z,10.83
2023-03-31T00:10:07.096Z,10.83
2023-03-31T00:13:20.033Z,10.84
2023-03-31T00:16:23.754Z,10.84
2023-03-31T00:19:29.099Z,10.84
2023-03-31T00:22:32.133Z,10.85
2023-03-31T00:25:35.454Z,10.86
2023-03-31T00:28:38.495Z,10.87
2023-03-31T00:31:42.101Z,10.88
2023-03-31T00:34:46.298Z,10.88
2023-03-31T00:37:49.349Z,10.87
2023-03-31T00:40:53.932Z,10.87
2023-03-31T00:44:27.770Z,10.87
2023-03-31T00:47:31.127Z,10.87
2023-03-31T00:50:41.318Z,10.87
2023-03-31T00:53:51.950Z,10.85
2023-03-31T00:56:58.723Z,10.85
2023-03-31T01:00:14.669Z,10.84
2023-03-31T01:03:18.595Z,10.85
2023-03-31T01:06:23.756Z,10.84
2023-03-31T01:09:34.874Z,10.84
2023-03-31T01:12:41.259Z,10.84
2023-03-31T01:15:44.655Z,10.83
2023-03-31T01:18:50.178Z,10.83
2023-03-31T01:22:10.583Z,10.83
2023-03-31T01:26:07.932Z,10.82
2023-03-31T01:29:20.141Z,10.80
2023-03-31T01:32:44.232Z,10.79
2023-03-31T01:36:21.639Z,10.76
2023-03-31T01:39:46.210Z,10.73
2023-03-31T01:43:14.985Z,10.72
2023-03-31T01:46:29.115Z,10.71
2023-03-31T01:49:52.197Z,10.69
2023-03-31T01:53:11.280Z,10.68
2023-03-31T01:56:21.622Z,10.67
2023-03-31T01:59:38.019Z,10.66
2023-03-31T02:02:41.197Z,10.66
2023-03-31T02:06:11.142Z,10.66
2023-03-31T02:09:19.687Z,10.65
2023-03-31T02:12:27.746Z,10.63
2023-03-31T02:15:36.506Z,10.62
2023-03-31T02:18:41.852Z,10.61
2023-03-31T02:21:50.103Z,10.61
2023-03-31T02:24:54.912Z,10.60
2023-03-31T02:28:07.809Z,10.60
2023-03-31T02:31:36.737Z,10.59
2023-03-31T02:34:43.003Z,10.59
2023-03-31T02:37:46.803Z,10.58
2023-03-31T02:40:50.088Z,10.59
2023-03-31T02:43:53.299Z,10.58
2023-03-31T02:46:58.010Z,10.58
2023-03-31T02:50:03.570Z,10.58
2023-03-31T02:53:59.820Z,10.57
2023-03-31T02:57:15.496Z,10.57
2023-03-31T03:00:40.640Z,10.56
2023-03-31T03:04:11.128Z,10.54
2023-03-31T03:07:25.016Z,10.54
2023-03-31T03:10:41.635Z,10.53
2023-03-31T03:13:52.874Z,10.52
2023-03-31T03:17:12.007Z,10.52
2023-03-31T03:20:16.313Z,10.52
2023-03-31T03:23:19.466Z,10.52
2023-03-31T03:26:24.482Z,10.52
2023-03-31T03:29:28.761Z,10.51
2023-03-31T03:32:33.820Z,10.51
2023-03-31T03:35:37.062Z,10.51
2023-03-31T03:38:40.245Z,10.51
2023-03-31T03:41:43.302Z,10.50
2023-03-31T03:44:46.379Z,10.50
2023-03-31T03:47:49.523Z,10.49
2023-03-31T03:50:54.286Z,10.48
2023-03-31T03:53:57.504Z,10.48
2023-03-31T03:57:00.765Z,10.47
2023-03-31T04:00:10.067Z,10.47
2023-03-31T04:03:15.270Z,10.46
2023-03-31T04:06:18.605Z,10.45
2023-03-31T04:09:21.741Z,10.45
2023-03-31T04:12:24.820Z,10.45
2023-03-31T04:15:27.891Z,10.45
2023-03-31T04:18:31.035Z,10.45
2023-03-31T04:21:37.305Z,10.45
2023-03-31T04:24:40.449Z,10.44
2023-03-31T04:27:55.747Z,10.43
2023-03-31T04:30:58.971Z,10.41
2023-03-31T04:34:06.717Z,10.40
2023-03-31T04:37:10.721Z,10.39
2023-03-31T04:40:13.967Z,10.38
2023-03-31T04:43:19.172Z,10.37
2023-03-31T04:46:22.697Z,10.35
2023-03-31T04:49:36.127Z,10.34
2023-03-31T04:52:42.356Z,10.33
2023-03-31T04:55:45.545Z,10.31
2023-03-31T04:58:48.676Z,10.28
2023-03-31T05:01:51.776Z,10.27
2023-03-31T05:04:54.810Z,10.25
2023-03-31T05:07:57.912Z,10.23
2023-03-31T05:11:04.565Z,10.21
2023-03-31T05:14:07.692Z,10.20
2023-03-31T05:17:11.441Z,10.19
2023-03-31T05:20:14.754Z,10.19
2023-03-31T05:23:17.849Z,10.21
2023-03-31T05:26:23.068Z,10.23
2023-03-31T05:29:26.401Z,10.27
2023-03-31T05:32:29.686Z,10.31
2023-03-31T05:35:32.855Z,10.36
2023-03-31T05:38:36.585Z,10.43
2023-03-31T05:41:40.575Z,10.49
2023-03-31T05:44:43.613Z,10.58
2023-03-31T05:47:47.484Z,10.65
2023-03-31T05:50:50.961Z,10.72
2023-03-31T05:53:54.225Z,10.81
2023-03-31T05:56:57.355Z,10.89
2023-03-31T06:00:00.708Z,10.98
2023-03-31T06:03:03.950Z,11.08
2023-03-31T06:06:08.705Z,11.16
2023-03-31T06:09:15.110Z,11.25
2023-03-31T06:12:18.268Z,11.35
2023-03-31T06:15:21.460Z,11.43
2023-03-31T06:18:28.701Z,11.51
2023-03-31T06:21:31.916Z,11.59
2023-03-31T06:24:35.075Z,11.67
2023-03-31T06:27:38.204Z,11.74
2023-03-31T06:30:42.046Z,11.81
2023-03-31T06:33:46.599Z,11.89
2023-03-31T06:36:49.843Z,11.97
2023-03-31T06:39:53.571Z,12.00
2023-03-31T06:42:56.828Z,12.01
2023-03-31T06:46:00.222Z,12.01
2023-03-31T06:49:03.441Z,12.00
2023-03-31T06:52:06.783Z,11.98
2023-03-31T06:55:10.710Z,11.97
2023-03-31T06:58:14.111Z,11.98
2023-03-31T07:01:17.357Z,12.02
2023-03-31T07:04:20.838Z,12.07
2023-03-31T07:07:24.059Z,12.13
2023-03-31T07:10:29.851Z,12.20
2023-03-31T07:13:33.032Z,12.27
2023-03-31T07:16:39.025Z,12.35
2023-03-31T07:19:42.432Z,12.42
2023-03-31T07:22:47.640Z,12.47
2023-03-31T07:25:50.964Z,12.53
2023-03-31T07:28:56.762Z,12.58
2023-03-31T07:32:00.001Z,12.62
2023-03-31T07:35:03.511Z,12.70
2023-03-31T07:38:11.159Z,12.78
2023-03-31T07:41:16.839Z,12.88
2023-03-31T07:44:21.869Z,12.98
2023-03-31T07:47:25.894Z,13.09
2023-03-31T07:50:29.166Z,13.21
2023-03-31T07:53:34.458Z,13.32
2023-03-31T07:56:37.810Z,13.43
2023-03-31T07:59:41.265Z,13.57
2023-03-31T08:02:44.829Z,13.70
2023-03-31T08:05:52.516Z,13.79
2023-03-31T08:08:56.488Z,13.84
2023-03-31T08:11:59.646Z,13.86
2023-03-31T08:15:03.207Z,13.87
2023-03-31T08:18:07.003Z,13.87
2023-03-31T08:21:10.431Z,13.88
2023-03-31T08:24:13.686Z,13.88
2023-03-31T08:27:17.144Z,13.87
2023-03-31T08:30:20.674Z,13.87
2023-03-31T08:33:24.001Z,13.91
2023-03-31T08:36:27.649Z,13.95
2023-03-31T08:39:31.245Z,13.99
2023-03-31T08:42:47.642Z,14.03
2023-03-31T08:45:51.063Z,14.08
2023-03-31T08:48:59.615Z,14.15
2023-03-31T08:52:08.731Z,14.26
2023-03-31T08:55:26.010Z,14.37
2023-03-31T08:58:51.583Z,14.50
2023-03-31T09:02:01.227Z,14.62
2023-03-31T09:05:19.350Z,14.67
2023-03-31T09:08:43.127Z,14.81
2023-03-31T09:11:55.789Z,14.98
2023-03-31T09:15:09.083Z,15.15
2023-03-31T09:18:25.452Z,15.36
2023-03-31T09:21:34.363Z,15.61
2023-03-31T09:24:52.713Z,15.87
2023-03-31T09:28:00.053Z,16.16
2023-03-31T09:31:15.063Z,16.42
2023-03-31T09:34:31.891Z,16.70
2023-03-31T09:37:35.159Z,16.95
2023-03-31T09:40:38.542Z,17.19
2023-03-31T09:43:43.475Z,17.39
2023-03-31T09:46:46.933Z,17.52
2023-03-31T09:49:54.140Z,17.69
2023-03-31T09:53:06.142Z,17.82
2023-03-31T09:56:11.661Z,17.82
2023-03-31T09:59:19.018Z,17.84
2023-03-31T10:02:34.713Z,17.98
2023-03-31T10:05:41.576Z,18.14
2023-03-31T10:08:59.687Z,18.19
2023-03-31T10:12:07.307Z,18.16
2023-03-31T10:15:42.907Z,18.08
2023-03-31T10:18:46.125Z,18.02
2023-03-31T10:21:57.367Z,17.87
2023-03-31T10:25:17.045Z,17.65
2023-03-31T10:28:21.910Z,17.48
2023-03-31T10:31:36.101Z,17.37
2023-03-31T10:34:42.913Z,17.26
2023-03-31T10:37:48.688Z,17.11
2023-03-31T10:40:55.287Z,17.03
2023-03-31T10:44:00.831Z,16.98
2023-03-31T10:47:22.002Z,16.93
2023-03-31T10:50:31.294Z,16.87
2023-03-31T10:54:03.481Z,16.79
2023-03-31T10:57:07.514Z,16.65
2023-03-31T11:00:49.608Z,16.52
2023-03-31T11:04:07.831Z,16.36
2023-03-31T11:07:14.071Z,16.23
2023-03-31T11:10:41.638Z,16.13
2023-03-31T11:13:54.152Z,16.08
2023-03-31T11:17:19.949Z,16.18
2023-03-31T11:20:52.088Z,16.24
2023-03-31T11:24:15.258Z,16.20
2023-03-31T11:27:30.324Z,16.16
2023-03-31T11:30:58.306Z,16.12
2023-03-31T11:34:31.730Z,16.19
2023-03-31T11:37:53.548Z,16.27
2023-03-31T11:41:22.906Z,16.27
2023-03-31T11:44:31.080Z,16.18
2023-03-31T11:47:38.002Z,16.11
2023-03-31T11:50:47.028Z,16.07
2023-03-31T11:53:53.109Z,16.05
2023-03-31T11:56:56.854Z,16.05
2023-03-31T12:00:25.382Z,16.03
2023-03-31T12:03:46.856Z,16.00
2023-03-31T12:06:52.396Z,15.95
2023-03-31T12:10:07.754Z,15.90
2023-03-31T12:13:41.659Z,15.86
2023-03-31T12:17:12.536Z,15.84
2023-03-31T12:20:33.332Z,15.83
2023-03-31T12:23:41.881Z,15.85
2023-03-31T12:27:02.884Z,15.85
2023-03-31T12:30:14.991Z,15.84
2023-03-31T12:33:24.653Z,15.82
2023-03-31T12:36:45.608Z,15.78
2023-03-31T12:40:26.920Z,15.76
2023-03-31T12:43:44.845Z,15.78
2023-03-31T12:47:04.133Z,15.80
2023-03-31T12:50:12.967Z,15.79
2023-03-31T12:53:37.225Z,15.77
2023-03-31T12:57:04.625Z,15.73
2023-03-31T13:00:13.629Z,15.68
2023-03-31T13:03:39.099Z,15.62
2023-03-31T13:06:43.584Z,15.54
2023-03-31T13:09:53.054Z,15.45
2023-03-31T13:13:22.529Z,15.34
2023-03-31T13:16:28.443Z,15.23
2023-03-31T13:19:35.867Z,15.12
2023-03-31T13:22:45.952Z,15.02
2023-03-31T13:25:52.747Z,14.94
2023-03-31T13:29:09.582Z,14.88
2023-03-31T13:32:24.732Z,14.86
2023-03-31T13:35:31.008Z,14.87
2023-03-31T13:39:07.618Z,14.89
2023-03-31T13:42:37.662Z,14.94
2023-03-31T13:45:56.215Z,15.01
2023-03-31T13:49:35.388Z,15.07
2023-03-31T13:53:06.154Z,15.12
2023-03-31T13:56:27.096Z,15.13
2023-03-31T14:00:12.690Z,15.11
2023-03-31T14:03:44.262Z,15.08
2023-03-31T14:06:53.836Z,15.05
2023-03-31T14:09:59.649Z,15.03
2023-03-31T14:13:12.288Z,15.00
2023-03-31T14:16:18.263Z,14.97
2023-03-31T14:19:56.710Z,14.94
2023-03-31T14:23:18.325Z,14.88
2023-03-31T14:26:46.838Z,14.83
2023-03-31T14:30:23.530Z,14.76
2023-03-31T14:33:35.420Z,14.69
2023-03-31T14:37:00.343Z,14.64
2023-03-31T14:40:05.070Z,14.59
2023-03-31T14:43:18.831Z,14.52
2023-03-31T14:46:22.783Z,14.44
2023-03-31T14:49:28.979Z,14.36
2023-03-31T14:52:34.088Z,14.28
2023-03-31T14:55:54.354Z,14.22
2023-03-31T14:59:02.540Z,14.15
2023-03-31T15:02:06.631Z,14.10
2023-03-31T15:05:21.482Z,14.06
2023-03-31T15:08:25.953Z,14.01
2023-03-31T15:11:31.383Z,13.96
2023-03-31T15:14:46.833Z,13.90
2023-03-31T15:17:51.545Z,13.86
2023-03-31T15:20:54.846Z,13.82
2023-03-31T15:23:58.704Z,13.78
2023-03-31T15:27:08.581Z,13.75
2023-03-31T15:30:22.115Z,13.73
2023-03-31T15:33:36.687Z,13.71
2023-03-31T15:36:39.784Z,13.70
2023-03-31T15:39:48.442Z,13.70
2023-03-31T15:43:24.295Z,13.69
2023-03-31T15:46:38.692Z,13.70
2023-03-31T15:49:53.495Z,13.70
2023-03-31T15:52:58.497Z,13.69
2023-03-31T15:56:01.895Z,13.69
2023-03-31T15:59:06.973Z,13.69
2023-03-31T16:02:17.718Z,13.68
2023-03-31T16:05:54.407Z,13.67
2023-03-31T16:09:06.798Z,13.65
2023-03-31T16:12:30.718Z,13.63
2023-03-31T16:15:50.175Z,13.61
2023-03-31T16:19:06.357Z,13.60
2023-03-31T16:22:16.248Z,13.57
2023-03-31T16:25:23.155Z,13.56
2023-03-31T16:28:30.197Z,13.54
2023-03-31T16:31:39.646Z,13.52
2023-03-31T16:35:00.638Z,13.51
2023-03-31T16:38:08.196Z,13.49
2023-03-31T16:41:12.384Z,13.48
2023-03-31T16:44:15.554Z,13.47
2023-03-31T16:47:31.622Z,13.45
2023-03-31T16:50:38.400Z,13.44
2023-03-31T16:53:41.941Z,13.43
2023-03-31T16:56:50.172Z,13.41
2023-03-31T16:59:53.418Z,13.39
2023-03-31T17:02:57.978Z,13.37
2023-03-31T17:06:06.588Z,13.35
2023-03-31T17:09:09.979Z,13.33
2023-03-31T17:12:13.263Z,13.30
2023-03-31T17:15:16.937Z,13.24
2023-03-31T17:18:20.141Z,13.18
2023-03-31T17:21:23.769Z,13.13
2023-03-31T17:24:27.488Z,13.09
2023-03-31T17:27:30.981Z,13.03
2023-03-31T17:30:36.511Z,12.96
2023-03-31T17:33:40.281Z,12.91
2023-03-31T17:36:44.545Z,12.86
2023-03-31T17:39:48.241Z,12.82
2023-03-31T17:42:51.553Z,12.78
2023-03-31T17:46:02.226Z,12.73
2023-03-31T17:49:05.813Z,12.66
2023-03-31T17:52:09.073Z,12.62
2023-03-31T17:55:12.683Z,12.59
2023-03-31T17:58:16.158Z,12.57
2023-03-31T18:01:19.387Z,12.56
2023-03-31T18:04:22.772Z,12.55
2023-03-31T18:07:25.953Z,12.54
2023-03-31T18:10:29.531Z,12.52
2023-03-31T18:13:34.903Z,12.52
2023-03-31T18:16:38.154Z,12.50
2023-03-31T18:19:43.733Z,12.50
2023-03-31T18:22:47.791Z,12.47
2023-03-31T18:25:51.789Z,12.45
2023-03-31T18:28:55.534Z,12.41
2023-03-31T18:31:58.902Z,12.37
2023-03-31T18:35:02.565Z,12.31
2023-03-31T18:38:05.862Z,12.25
2023-03-31T18:41:10.003Z,12.18
2023-03-31T18:44:16.036Z,12.11
2023-03-31T18:47:20.993Z,12.05
2023-03-31T18:50:24.162Z,12.00
2023-03-31T18:53:27.970Z,11.95
2023-03-31T18:56:31.589Z,11.92
2023-03-31T18:59:34.715Z,11.88
2023-03-31T19:02:37.845Z,11.86
2023-03-31T19:05:41.195Z,11.84
2023-03-31T19:08:44.253Z,11.82
2023-03-31T19:11:47.524Z,11.80
2023-03-31T19:14:50.668Z,11.78
2023-03-31T19:17:54.161Z,11.75
2023-03-31T19:20:59.427Z,11.72
2023-03-31T19:24:02.835Z,11.70
2023-03-31T19:27:06.521Z,11.68
2023-03-31T19:30:18.189Z,11.67
2023-03-31T19:33:21.341Z,11.65
2023-03-31T19:36:24.478Z,11.64
2023-03-31T19:39:28.258Z,11.63
2023-03-31T19:42:33.396Z,11.61
2023-03-31T19:45:37.478Z,11.59
2023-03-31T19:48:41.234Z,11.58
2023-03-31T19:51:44.363Z,11.58
2023-03-31T19:54:48.048Z,11.57
2023-03-31T19:57:51.316Z,11.58
2023-03-31T20:00:56.049Z,11.57
2023-03-31T20:03:59.274Z,11.56
2023-03-31T20:07:03.354Z,11.56
2023-03-31T20:10:07.810Z,11.56
2023-03-31T20:13:11.394Z,11.55
2023-03-31T20:16:20.331Z,11.54
2023-03-31T20:19:23.508Z,11.55
2023-03-31T20:22:26.731Z,11.55
2023-03-31T20:25:30.139Z,11.55
2023-03-31T20:28:34.468Z,11.55
2023-03-31T20:31:40.068Z,11.55
2023-03-31T20:34:43.260Z,11.55
2023-03-31T20:37:46.589Z,11.55
2023-03-31T20:40:49.784Z,11.54
2023-03-31T20:43:53.853Z,11.54
2023-03-31T20:46:59.140Z,11.54
2023-03-31T20:50:03.007Z,11.54
2023-03-31T20:53:06.124Z,11.55
2023-03-31T20:56:17.799Z,11.56
2023-03-31T20:59:21.700Z,11.58
2023-03-31T21:02:25.546Z,11.59
2023-03-31T21:05:29.666Z,11.60
2023-03-31T21:08:33.393Z,11.59
2023-03-31T21:11:36.541Z,11.60
2023-03-31T21:14:39.897Z,11.61
2023-03-31T21:17:43.151Z,11.61
2023-03-31T21:21:11.216Z,11.62
2023-03-31T21:24:14.377Z,11.62
2023-03-31T21:27:17.725Z,11.62
2023-03-31T21:30:21.464Z,11.62
2023-03-31T21:33:25.331Z,11.62
2023-03-31T21:36:29.267Z,11.62
2023-03-31T21:39:32.290Z,11.63
2023-03-31T21:42:36.337Z,11.62
2023-03-31T21:45:39.869Z,11.62
2023-03-31T21:48:45.074Z,11.61
2023-03-31T21:51:49.046Z,11.60
2023-03-31T21:54:52.545Z,11.59
2023-03-31T21:57:55.648Z,11.57
2023-03-31T22:01:04.089Z,11.56
2023-03-31T22:04:08.552Z,11.53
2023-03-31T22:07:14.422Z,11.51
2023-03-31T22:10:17.552Z,11.50
2023-03-31T22:13:22.308Z,11.47
2023-03-31T22:16:25.616Z,11.47
2023-03-31T22:19:28.813Z,11.44
2023-03-31T22:22:31.997Z,11.42
2023-03-31T22:25:35.460Z,11.40
2023-03-31T22:28:38.642Z,11.38
2023-03-31T22:31:42.033Z,11.37
2023-03-31T22:34:46.040Z,11.36
2023-03-31T22:37:49.140Z,11.35
2023-03-31T22:40:52.188Z,11.33
2023-03-31T22:43:55.502Z,11.32
2023-03-31T22:46:58.614Z,11.30
2023-03-31T22:50:01.790Z,11.28
2023-03-31T22:53:05.042Z,11.28
2023-03-31T22:56:11.895Z,11.27
2023-03-31T22:59:15.953Z,11.26
2023-03-31T23:02:19.134Z,11.25
2023-03-31T23:05:24.292Z,11.24
2023-03-31T23:08:27.464Z,11.23
2023-03-31T23:11:30.612Z,11.23
2023-03-31T23:14:33.679Z,11.22
2023-03-31T23:17:37.055Z,11.22
2023-03-31T23:20:41.006Z,11.22
2023-03-31T23:23:44.035Z,11.21
2023-03-31T23:26:47.390Z,11.21
2023-03-31T23:29:50.579Z,11.20
2023-03-31T23:32:55.197Z,11.19
2023-03-31T23:36:00.990Z,11.20
2023-03-31T23:39:06.636Z,11.19
2023-03-31T23:42:12.590Z,11.19
2023-03-31T23:45:15.893Z,11.19
2023-03-31T23:48:19.345Z,11.18
2023-03-31T23:51:22.573Z,11.18
2023-03-31T23:54:25.916Z,11.16
2023-03-31T23:57:29.189Z,11.14
